Aliquippa, Pennsylvania
Current Conditions -  °F | °C
As of 11:51 AM on Wednesday 26 Nov 2014 (Local Time) from KPIT Reporting Station
Light Snow Light Snow  
Wind Chill: 26°   Ceiling: 1400
Heat Index: 31°   Visibility: 0.75mi
Dew Point: 29°   Wind: 5mph
Humidity: 92%   Direction: 10°N
Pressure: 30.04"   Gusts: NA
Location:  40.62°N, 80.24°W
Report Text: KPIT 261651Z 01004KT 3/4SM R28R/4000V4500FT -SN BR SCT004 OVC014 M01/M02 A3004 RMK AO2 SLP193 P0003 T10061017
Loading
Personal Weather Stations






























Interactive Weather Map New forecast layout! Learn more

10-Day Weather Forecast

Advertisements
Track Severe Weather on mobile